sensor_id;sensor_type;location;lat;lon;timestamp;P1;durP1;ratioP1;P2;durP2;ratioP2
5465;SDS011;2755;50.728;7.108;2023-12-14T00:01:11;128.20;;;51.57;;
5465;SDS011;2755;50.728;7.108;2023-12-14T00:03:38;131.60;;;56.47;;
5465;SDS011;2755;50.728;7.108;2023-12-14T00:06:10;129.23;;;53.33;;
5465;SDS011;2755;50.728;7.108;2023-12-14T00:08:36;128.77;;;52.67;;
5465;SDS011;2755;50.728;7.108;2023-12-14T00:11:08;128.90;;;52.60;;
5465;SDS011;2755;50.728;7.108;2023-12-14T00:13:35;129.67;;;54.70;;
5465;SDS011;2755;50.728;7.108;2023-12-14T00:16:01;130.67;;;53.93;;
5465;SDS011;2755;50.728;7.108;2023-12-14T00:18:27;131.70;;;55.90;;
5465;SDS011;2755;50.728;7.108;2023-12-14T00:20:52;131.50;;;55.93;;
5465;SDS011;2755;50.728;7.108;2023-12-14T00:23:19;129.67;;;53.10;;
5465;SDS011;2755;50.728;7.108;2023-12-14T00:25:45;127.50;;;50.20;;
5465;SDS011;2755;50.728;7.108;2023-12-14T00:28:11;133.23;;;59.20;;
5465;SDS011;2755;50.728;7.108;2023-12-14T00:30:36;130.03;;;53.60;;
5465;SDS011;2755;50.728;7.108;2023-12-14T00:33:02;132.70;;;57.10;;
5465;SDS011;2755;50.728;7.108;2023-12-14T00:35:27;131.67;;;55.80;;
5465;SDS011;2755;50.728;7.108;2023-12-14T00:37:53;130.03;;;53.17;;
5465;SDS011;2755;50.728;7.108;2023-12-14T00:40:18;129.77;;;54.77;;
5465;SDS011;2755;50.728;7.108;2023-12-14T00:42:44;129.10;;;53.33;;
5465;SDS011;2755;50.728;7.108;2023-12-14T00:45:10;131.13;;;56.30;;
5465;SDS011;2755;50.728;7.108;2023-12-14T00:47:35;128.57;;;51.70;;
5465;SDS011;2755;50.728;7.108;2023-12-14T00:50:01;130.43;;;55.50;;
5465;SDS011;2755;50.728;7.108;2023-12-14T00:52:27;130.67;;;55.10;;
5465;SDS011;2755;50.728;7.108;2023-12-14T00:54:53;130.50;;;55.30;;
5465;SDS011;2755;50.728;7.108;2023-12-14T00:57:18;131.17;;;54.67;;
5465;SDS011;2755;50.728;7.108;2023-12-14T00:59:44;131.00;;;55.43;;
5465;SDS011;2755;50.728;7.108;2023-12-14T01:02:09;130.90;;;55.30;;
5465;SDS011;2755;50.728;7.108;2023-12-14T01:04:35;128.87;;;52.63;;
5465;SDS011;2755;50.728;7.108;2023-12-14T01:07:01;132.87;;;56.67;;
5465;SDS011;2755;50.728;7.108;2023-12-14T01:09:26;132.20;;;58.23;;
5465;SDS011;2755;50.728;7.108;2023-12-14T01:11:52;131.37;;;54.70;;
5465;SDS011;2755;50.728;7.108;2023-12-14T01:14:18;129.40;;;53.57;;
5465;SDS011;2755;50.728;7.108;2023-12-14T01:16:44;127.57;;;49.97;;
5465;SDS011;2755;50.728;7.108;2023-12-14T01:19:10;132.03;;;57.63;;
5465;SDS011;2755;50.728;7.108;2023-12-14T01:21:35;131.67;;;55.67;;
5465;SDS011;2755;50.728;7.108;2023-12-14T01:24:01;131.40;;;54.97;;
5465;SDS011;2755;50.728;7.108;2023-12-14T01:26:27;129.20;;;53.67;;
5465;SDS011;2755;50.728;7.108;2023-12-14T01:28:53;134.07;;;59.00;;
5465;SDS011;2755;50.728;7.108;2023-12-14T01:31:18;134.50;;;60.03;;
5465;SDS011;2755;50.728;7.108;2023-12-14T01:33:48;130.93;;;53.73;;
5465;SDS011;2755;50.728;7.108;2023-12-14T01:36:19;133.67;;;58.87;;
5465;SDS011;2755;50.728;7.108;2023-12-14T01:38:49;132.97;;;57.27;;
5465;SDS011;2755;50.728;7.108;2023-12-14T01:41:15;132.77;;;56.63;;
5465;SDS011;2755;50.728;7.108;2023-12-14T01:43:42;130.80;;;54.27;;
5465;SDS011;2755;50.728;7.108;2023-12-14T01:46:07;135.13;;;59.53;;
5465;SDS011;2755;50.728;7.108;2023-12-14T01:48:33;133.83;;;58.70;;
5465;SDS011;2755;50.728;7.108;2023-12-14T01:50:59;133.77;;;58.13;;
5465;SDS011;2755;50.728;7.108;2023-12-14T01:53:24;130.50;;;52.10;;
5465;SDS011;2755;50.728;7.108;2023-12-14T01:55:50;132.43;;;53.90;;
5465;SDS011;2755;50.728;7.108;2023-12-14T01:58:16;132.17;;;56.40;;
5465;SDS011;2755;50.728;7.108;2023-12-14T02:03:19;138.17;;;59.43;;
5465;SDS011;2755;50.728;7.108;2023-12-14T02:05:45;134.90;;;57.27;;
5465;SDS011;2755;50.728;7.108;2023-12-14T02:08:10;138.03;;;61.10;;
5465;SDS011;2755;50.728;7.108;2023-12-14T02:10:36;136.33;;;60.17;;
5465;SDS011;2755;50.728;7.108;2023-12-14T02:13:02;136.17;;;57.50;;
5465;SDS011;2755;50.728;7.108;2023-12-14T02:15:28;133.47;;;56.17;;
5465;SDS011;2755;50.728;7.108;2023-12-14T02:17:54;135.30;;;61.20;;
5465;SDS011;2755;50.728;7.108;2023-12-14T02:20:19;133.00;;;53.43;;
5465;SDS011;2755;50.728;7.108;2023-12-14T02:22:55;135.37;;;54.40;;
5465;SDS011;2755;50.728;7.108;2023-12-14T02:25:21;140.40;;;57.10;;
5465;SDS011;2755;50.728;7.108;2023-12-14T02:27:47;133.93;;;55.17;;
5465;SDS011;2755;50.728;7.108;2023-12-14T02:30:14;134.07;;;55.70;;
5465;SDS011;2755;50.728;7.108;2023-12-14T02:32:40;139.37;;;62.00;;
5465;SDS011;2755;50.728;7.108;2023-12-14T02:35:06;139.17;;;61.70;;
5465;SDS011;2755;50.728;7.108;2023-12-14T02:37:33;138.60;;;58.43;;
5465;SDS011;2755;50.728;7.108;2023-12-14T02:39:59;138.67;;;60.03;;
5465;SDS011;2755;50.728;7.108;2023-12-14T02:42:25;137.77;;;59.00;;
5465;SDS011;2755;50.728;7.108;2023-12-14T02:44:53;135.67;;;57.10;;
5465;SDS011;2755;50.728;7.108;2023-12-14T02:47:19;139.10;;;57.67;;
5465;SDS011;2755;50.728;7.108;2023-12-14T02:49:44;133.57;;;54.67;;
5465;SDS011;2755;50.728;7.108;2023-12-14T02:52:10;140.00;;;59.80;;
5465;SDS011;2755;50.728;7.108;2023-12-14T02:54:38;141.73;;;61.47;;
5465;SDS011;2755;50.728;7.108;2023-12-14T02:57:05;138.47;;;55.70;;
5465;SDS011;2755;50.728;7.108;2023-12-14T02:59:30;141.70;;;60.37;;
5465;SDS011;2755;50.728;7.108;2023-12-14T03:01:56;141.87;;;62.67;;
5465;SDS011;2755;50.728;7.108;2023-12-14T03:04:22;139.27;;;60.73;;
5465;SDS011;2755;50.728;7.108;2023-12-14T03:06:48;139.47;;;59.37;;
5465;SDS011;2755;50.728;7.108;2023-12-14T03:09:14;136.70;;;59.13;;
5465;SDS011;2755;50.728;7.108;2023-12-14T03:11:39;137.87;;;59.20;;
5465;SDS011;2755;50.728;7.108;2023-12-14T03:14:05;135.13;;;56.37;;
5465;SDS011;2755;50.728;7.108;2023-12-14T03:16:31;139.17;;;59.83;;
5465;SDS011;2755;50.728;7.108;2023-12-14T03:18:56;140.17;;;61.47;;
5465;SDS011;2755;50.728;7.108;2023-12-14T03:21:22;140.07;;;54.67;;
5465;SDS011;2755;50.728;7.108;2023-12-14T03:23:48;141.57;;;61.67;;
5465;SDS011;2755;50.728;7.108;2023-12-14T03:26:14;138.03;;;57.77;;
5465;SDS011;2755;50.728;7.108;2023-12-14T03:28:40;142.27;;;59.60;;
5465;SDS011;2755;50.728;7.108;2023-12-14T03:31:06;141.07;;;58.77;;
5465;SDS011;2755;50.728;7.108;2023-12-14T03:33:32;140.87;;;60.57;;
5465;SDS011;2755;50.728;7.108;2023-12-14T03:35:57;139.97;;;60.07;;
5465;SDS011;2755;50.728;7.108;2023-12-14T03:38:24;140.77;;;61.93;;
5465;SDS011;2755;50.728;7.108;2023-12-14T03:40:50;138.70;;;57.67;;
5465;SDS011;2755;50.728;7.108;2023-12-14T03:43:15;137.10;;;56.10;;
5465;SDS011;2755;50.728;7.108;2023-12-14T03:45:42;136.47;;;58.80;;
5465;SDS011;2755;50.728;7.108;2023-12-14T03:48:08;142.40;;;61.67;;
5465;SDS011;2755;50.728;7.108;2023-12-14T03:50:33;138.30;;;59.97;;
5465;SDS011;2755;50.728;7.108;2023-12-14T03:52:59;138.80;;;60.80;;
5465;SDS011;2755;50.728;7.108;2023-12-14T03:55:24;139.83;;;61.53;;
5465;SDS011;2755;50.728;7.108;2023-12-14T03:57:50;141.67;;;58.60;;
5465;SDS011;2755;50.728;7.108;2023-12-14T04:00:16;138.17;;;58.23;;
5465;SDS011;2755;50.728;7.108;2023-12-14T04:02:42;139.50;;;59.13;;
5465;SDS011;2755;50.728;7.108;2023-12-14T04:05:08;140.67;;;64.37;;
5465;SDS011;2755;50.728;7.108;2023-12-14T04:07:37;139.60;;;60.37;;
5465;SDS011;2755;50.728;7.108;2023-12-14T04:10:07;145.90;;;62.77;;
5465;SDS011;2755;50.728;7.108;2023-12-14T04:12:34;140.67;;;58.07;;
5465;SDS011;2755;50.728;7.108;2023-12-14T04:15:00;136.50;;;57.80;;
5465;SDS011;2755;50.728;7.108;2023-12-14T04:17:26;138.00;;;56.57;;
5465;SDS011;2755;50.728;7.108;2023-12-14T04:19:51;137.07;;;58.87;;
5465;SDS011;2755;50.728;7.108;2023-12-14T04:22:17;136.30;;;57.73;;
5465;SDS011;2755;50.728;7.108;2023-12-14T04:24:42;138.23;;;56.63;;
5465;SDS011;2755;50.728;7.108;2023-12-14T04:27:08;134.30;;;56.67;;
5465;SDS011;2755;50.728;7.108;2023-12-14T04:29:34;136.90;;;57.23;;
5465;SDS011;2755;50.728;7.108;2023-12-14T04:31:59;136.57;;;57.40;;
5465;SDS011;2755;50.728;7.108;2023-12-14T04:34:25;135.60;;;54.07;;
5465;SDS011;2755;50.728;7.108;2023-12-14T04:36:50;140.83;;;62.57;;
5465;SDS011;2755;50.728;7.108;2023-12-14T04:39:17;138.67;;;59.10;;
5465;SDS011;2755;50.728;7.108;2023-12-14T04:41:43;136.77;;;57.07;;
5465;SDS011;2755;50.728;7.108;2023-12-14T04:44:09;136.73;;;56.67;;
5465;SDS011;2755;50.728;7.108;2023-12-14T04:46:35;133.20;;;53.27;;
5465;SDS011;2755;50.728;7.108;2023-12-14T04:49:01;136.97;;;57.57;;
5465;SDS011;2755;50.728;7.108;2023-12-14T04:51:27;138.40;;;61.00;;
5465;SDS011;2755;50.728;7.108;2023-12-14T04:53:52;138.60;;;60.17;;
5465;SDS011;2755;50.728;7.108;2023-12-14T04:56:18;137.67;;;58.00;;
5465;SDS011;2755;50.728;7.108;2023-12-14T04:58:44;139.00;;;61.93;;
5465;SDS011;2755;50.728;7.108;2023-12-14T05:01:11;138.17;;;58.03;;
5465;SDS011;2755;50.728;7.108;2023-12-14T05:03:37;136.67;;;58.97;;
5465;SDS011;2755;50.728;7.108;2023-12-14T05:06:02;136.43;;;59.47;;
5465;SDS011;2755;50.728;7.108;2023-12-14T05:08:28;136.97;;;61.17;;
5465;SDS011;2755;50.728;7.108;2023-12-14T05:10:54;133.50;;;55.07;;
5465;SDS011;2755;50.728;7.108;2023-12-14T05:13:19;133.90;;;57.23;;
5465;SDS011;2755;50.728;7.108;2023-12-14T05:15:45;137.63;;;59.97;;
5465;SDS011;2755;50.728;7.108;2023-12-14T05:18:10;133.47;;;57.90;;
5465;SDS011;2755;50.728;7.108;2023-12-14T05:20:36;133.27;;;56.77;;
5465;SDS011;2755;50.728;7.108;2023-12-14T05:23:02;134.33;;;58.93;;
5465;SDS011;2755;50.728;7.108;2023-12-14T05:25:27;132.20;;;56.17;;
5465;SDS011;2755;50.728;7.108;2023-12-14T05:27:53;130.93;;;53.57;;
5465;SDS011;2755;50.728;7.108;2023-12-14T05:30:19;133.37;;;56.83;;
5465;SDS011;2755;50.728;7.108;2023-12-14T05:32:45;131.70;;;55.67;;
5465;SDS011;2755;50.728;7.108;2023-12-14T05:35:11;133.87;;;57.37;;
5465;SDS011;2755;50.728;7.108;2023-12-14T05:37:40;129.47;;;49.67;;
5465;SDS011;2755;50.728;7.108;2023-12-14T05:40:07;132.30;;;54.77;;
5465;SDS011;2755;50.728;7.108;2023-12-14T05:42:34;129.03;;;52.33;;
5465;SDS011;2755;50.728;7.108;2023-12-14T05:44:59;130.90;;;52.63;;
5465;SDS011;2755;50.728;7.108;2023-12-14T05:47:26;131.37;;;53.33;;
5465;SDS011;2755;50.728;7.108;2023-12-14T05:49:51;132.23;;;53.77;;
5465;SDS011;2755;50.728;7.108;2023-12-14T05:52:17;133.63;;;55.70;;
5465;SDS011;2755;50.728;7.108;2023-12-14T05:54:43;133.27;;;56.57;;
5465;SDS011;2755;50.728;7.108;2023-12-14T05:57:09;132.13;;;53.93;;
5465;SDS011;2755;50.728;7.108;2023-12-14T05:59:38;134.67;;;55.30;;
5465;SDS011;2755;50.728;7.108;2023-12-14T06:02:03;140.77;;;60.93;;
5465;SDS011;2755;50.728;7.108;2023-12-14T06:04:30;137.43;;;55.07;;
5465;SDS011;2755;50.728;7.108;2023-12-14T06:06:55;138.93;;;61.97;;
5465;SDS011;2755;50.728;7.108;2023-12-14T06:09:21;140.90;;;56.90;;
5465;SDS011;2755;50.728;7.108;2023-12-14T06:11:51;138.93;;;58.47;;
5465;SDS011;2755;50.728;7.108;2023-12-14T06:14:17;135.23;;;56.40;;
5465;SDS011;2755;50.728;7.108;2023-12-14T06:16:43;136.73;;;55.47;;
5465;SDS011;2755;50.728;7.108;2023-12-14T06:19:09;135.63;;;56.17;;
5465;SDS011;2755;50.728;7.108;2023-12-14T06:21:34;133.87;;;55.77;;
5465;SDS011;2755;50.728;7.108;2023-12-14T06:24:00;136.03;;;55.73;;
5465;SDS011;2755;50.728;7.108;2023-12-14T06:26:26;139.73;;;59.30;;
5465;SDS011;2755;50.728;7.108;2023-12-14T06:28:52;140.70;;;57.33;;
5465;SDS011;2755;50.728;7.108;2023-12-14T06:31:18;139.20;;;56.47;;
5465;SDS011;2755;50.728;7.108;2023-12-14T06:33:47;139.67;;;58.40;;
5465;SDS011;2755;50.728;7.108;2023-12-14T06:36:14;138.33;;;58.10;;
5465;SDS011;2755;50.728;7.108;2023-12-14T06:38:45;137.73;;;57.67;;
5465;SDS011;2755;50.728;7.108;2023-12-14T06:41:23;141.90;;;58.70;;
5465;SDS011;2755;50.728;7.108;2023-12-14T06:43:49;134.87;;;53.57;;
5465;SDS011;2755;50.728;7.108;2023-12-14T06:46:15;141.80;;;60.07;;
5465;SDS011;2755;50.728;7.108;2023-12-14T06:48:41;137.90;;;55.57;;
5465;SDS011;2755;50.728;7.108;2023-12-14T06:51:07;140.67;;;59.57;;
5465;SDS011;2755;50.728;7.108;2023-12-14T06:53:34;136.87;;;53.37;;
5465;SDS011;2755;50.728;7.108;2023-12-14T06:56:00;134.13;;;51.43;;
5465;SDS011;2755;50.728;7.108;2023-12-14T06:58:26;135.83;;;54.27;;
5465;SDS011;2755;50.728;7.108;2023-12-14T07:00:52;138.77;;;56.07;;
5465;SDS011;2755;50.728;7.108;2023-12-14T07:03:18;137.57;;;57.63;;
5465;SDS011;2755;50.728;7.108;2023-12-14T07:05:44;140.10;;;56.17;;
5465;SDS011;2755;50.728;7.108;2023-12-14T07:08:10;139.23;;;55.80;;
5465;SDS011;2755;50.728;7.108;2023-12-14T07:10:35;139.27;;;57.43;;
5465;SDS011;2755;50.728;7.108;2023-12-14T07:13:01;136.67;;;54.53;;
5465;SDS011;2755;50.728;7.108;2023-12-14T07:15:26;133.63;;;54.47;;
5465;SDS011;2755;50.728;7.108;2023-12-14T07:17:52;134.70;;;55.87;;
5465;SDS011;2755;50.728;7.108;2023-12-14T07:20:18;137.17;;;55.23;;
5465;SDS011;2755;50.728;7.108;2023-12-14T07:22:44;142.17;;;57.37;;
5465;SDS011;2755;50.728;7.108;2023-12-14T07:25:10;138.30;;;59.30;;
5465;SDS011;2755;50.728;7.108;2023-12-14T07:27:36;136.57;;;55.83;;
5465;SDS011;2755;50.728;7.108;2023-12-14T07:30:02;132.67;;;51.47;;
5465;SDS011;2755;50.728;7.108;2023-12-14T07:32:28;137.67;;;55.80;;
5465;SDS011;2755;50.728;7.108;2023-12-14T07:34:54;135.17;;;55.10;;
5465;SDS011;2755;50.728;7.108;2023-12-14T07:37:20;135.53;;;52.60;;
5465;SDS011;2755;50.728;7.108;2023-12-14T07:39:46;133.30;;;51.30;;
5465;SDS011;2755;50.728;7.108;2023-12-14T07:42:11;134.07;;;53.27;;
5465;SDS011;2755;50.728;7.108;2023-12-14T07:44:38;136.07;;;55.37;;
5465;SDS011;2755;50.728;7.108;2023-12-14T07:47:05;133.47;;;52.27;;
5465;SDS011;2755;50.728;7.108;2023-12-14T07:49:31;132.97;;;53.27;;
5465;SDS011;2755;50.728;7.108;2023-12-14T07:51:56;135.77;;;54.20;;
5465;SDS011;2755;50.728;7.108;2023-12-14T07:54:22;135.67;;;54.87;;
5465;SDS011;2755;50.728;7.108;2023-12-14T07:56:50;134.57;;;52.67;;
5465;SDS011;2755;50.728;7.108;2023-12-14T07:59:16;134.80;;;54.80;;
5465;SDS011;2755;50.728;7.108;2023-12-14T08:01:42;135.00;;;55.47;;
5465;SDS011;2755;50.728;7.108;2023-12-14T08:04:07;132.17;;;52.60;;
5465;SDS011;2755;50.728;7.108;2023-12-14T08:06:35;131.57;;;51.70;;
5465;SDS011;2755;50.728;7.108;2023-12-14T08:09:00;132.03;;;50.30;;
5465;SDS011;2755;50.728;7.108;2023-12-14T08:11:27;132.77;;;53.90;;
5465;SDS011;2755;50.728;7.108;2023-12-14T08:13:52;133.80;;;51.30;;
5465;SDS011;2755;50.728;7.108;2023-12-14T08:16:18;132.67;;;50.67;;
5465;SDS011;2755;50.728;7.108;2023-12-14T08:18:44;133.03;;;52.77;;
5465;SDS011;2755;50.728;7.108;2023-12-14T08:21:11;135.73;;;53.67;;
5465;SDS011;2755;50.728;7.108;2023-12-14T08:23:37;135.53;;;52.10;;
5465;SDS011;2755;50.728;7.108;2023-12-14T08:26:03;136.63;;;52.77;;
5465;SDS011;2755;50.728;7.108;2023-12-14T08:28:29;135.83;;;54.50;;
5465;SDS011;2755;50.728;7.108;2023-12-14T08:30:55;131.97;;;50.60;;
5465;SDS011;2755;50.728;7.108;2023-12-14T08:33:23;132.17;;;49.53;;
5465;SDS011;2755;50.728;7.108;2023-12-14T08:35:49;135.07;;;52.57;;
5465;SDS011;2755;50.728;7.108;2023-12-14T08:38:15;132.87;;;48.70;;
5465;SDS011;2755;50.728;7.108;2023-12-14T08:40:41;135.37;;;54.67;;
5465;SDS011;2755;50.728;7.108;2023-12-14T08:43:07;133.57;;;52.40;;
5465;SDS011;2755;50.728;7.108;2023-12-14T08:45:33;134.20;;;50.70;;
5465;SDS011;2755;50.728;7.108;2023-12-14T08:47:59;129.53;;;48.53;;
5465;SDS011;2755;50.728;7.108;2023-12-14T08:50:25;129.47;;;47.37;;
5465;SDS011;2755;50.728;7.108;2023-12-14T08:52:53;130.17;;;48.17;;
5465;SDS011;2755;50.728;7.108;2023-12-14T08:55:19;131.50;;;50.80;;
5465;SDS011;2755;50.728;7.108;2023-12-14T08:57:45;131.77;;;50.00;;
5465;SDS011;2755;50.728;7.108;2023-12-14T09:00:11;130.17;;;49.90;;
5465;SDS011;2755;50.728;7.108;2023-12-14T09:02:37;129.57;;;49.63;;
5465;SDS011;2755;50.728;7.108;2023-12-14T09:05:03;131.30;;;51.20;;
5465;SDS011;2755;50.728;7.108;2023-12-14T09:07:32;128.80;;;49.40;;
5465;SDS011;2755;50.728;7.108;2023-12-14T09:09:57;128.17;;;47.57;;
5465;SDS011;2755;50.728;7.108;2023-12-14T09:12:23;130.90;;;49.73;;
5465;SDS011;2755;50.728;7.108;2023-12-14T09:14:49;128.67;;;48.80;;
5465;SDS011;2755;50.728;7.108;2023-12-14T09:17:15;128.43;;;47.87;;
5465;SDS011;2755;50.728;7.108;2023-12-14T09:19:41;130.37;;;49.87;;
5465;SDS011;2755;50.728;7.108;2023-12-14T09:22:06;126.97;;;45.67;;
5465;SDS011;2755;50.728;7.108;2023-12-14T09:24:32;129.33;;;49.27;;
5465;SDS011;2755;50.728;7.108;2023-12-14T09:26:58;128.63;;;48.20;;
5465;SDS011;2755;50.728;7.108;2023-12-14T09:29:24;130.07;;;50.60;;
5465;SDS011;2755;50.728;7.108;2023-12-14T09:31:50;130.87;;;51.03;;
5465;SDS011;2755;50.728;7.108;2023-12-14T09:34:16;129.00;;;48.97;;
5465;SDS011;2755;50.728;7.108;2023-12-14T09:36:42;128.90;;;48.60;;
5465;SDS011;2755;50.728;7.108;2023-12-14T09:39:08;127.20;;;47.80;;
5465;SDS011;2755;50.728;7.108;2023-12-14T09:41:35;129.03;;;49.37;;
5465;SDS011;2755;50.728;7.108;2023-12-14T09:44:05;128.87;;;47.47;;
5465;SDS011;2755;50.728;7.108;2023-12-14T09:46:32;126.40;;;46.40;;
5465;SDS011;2755;50.728;7.108;2023-12-14T09:49:01;128.67;;;46.90;;
5465;SDS011;2755;50.728;7.108;2023-12-14T09:51:29;129.50;;;46.57;;
5465;SDS011;2755;50.728;7.108;2023-12-14T09:53:55;127.87;;;48.33;;
5465;SDS011;2755;50.728;7.108;2023-12-14T09:56:24;128.27;;;47.90;;
5465;SDS011;2755;50.728;7.108;2023-12-14T09:58:50;127.77;;;48.27;;
5465;SDS011;2755;50.728;7.108;2023-12-14T10:01:26;127.07;;;47.57;;
5465;SDS011;2755;50.728;7.108;2023-12-14T10:04:11;127.53;;;45.87;;
5465;SDS011;2755;50.728;7.108;2023-12-14T10:06:38;125.10;;;44.67;;
5465;SDS011;2755;50.728;7.108;2023-12-14T10:09:05;126.60;;;47.13;;
5465;SDS011;2755;50.728;7.108;2023-12-14T10:11:35;124.27;;;44.60;;
5465;SDS011;2755;50.728;7.108;2023-12-14T10:14:01;124.77;;;46.50;;
5465;SDS011;2755;50.728;7.108;2023-12-14T10:16:32;127.47;;;47.17;;
5465;SDS011;2755;50.728;7.108;2023-12-14T10:18:59;126.90;;;47.10;;
5465;SDS011;2755;50.728;7.108;2023-12-14T10:21:28;127.90;;;49.00;;
5465;SDS011;2755;50.728;7.108;2023-12-14T10:23:57;127.07;;;46.97;;
5465;SDS011;2755;50.728;7.108;2023-12-14T10:26:23;125.03;;;44.90;;
5465;SDS011;2755;50.728;7.108;2023-12-14T10:28:50;128.70;;;48.47;;
5465;SDS011;2755;50.728;7.108;2023-12-14T10:31:17;127.17;;;45.27;;
5465;SDS011;2755;50.728;7.108;2023-12-14T10:33:45;129.93;;;47.17;;
5465;SDS011;2755;50.728;7.108;2023-12-14T10:36:12;127.67;;;47.43;;
5465;SDS011;2755;50.728;7.108;2023-12-14T10:38:39;126.47;;;46.33;;
5465;SDS011;2755;50.728;7.108;2023-12-14T10:41:07;125.87;;;45.27;;
5465;SDS011;2755;50.728;7.108;2023-12-14T10:43:35;125.77;;;44.10;;
5465;SDS011;2755;50.728;7.108;2023-12-14T10:46:01;127.10;;;46.97;;
5465;SDS011;2755;50.728;7.108;2023-12-14T10:48:30;127.40;;;47.20;;
5465;SDS011;2755;50.728;7.108;2023-12-14T10:50:56;125.97;;;45.47;;
5465;SDS011;2755;50.728;7.108;2023-12-14T10:53:25;127.97;;;48.10;;
5465;SDS011;2755;50.728;7.108;2023-12-14T10:55:51;126.67;;;45.90;;
5465;SDS011;2755;50.728;7.108;2023-12-14T10:58:19;125.27;;;43.33;;
5465;SDS011;2755;50.728;7.108;2023-12-14T11:00:47;129.47;;;48.70;;
5465;SDS011;2755;50.728;7.108;2023-12-14T11:03:25;126.17;;;43.93;;
5465;SDS011;2755;50.728;7.108;2023-12-14T11:05:51;126.10;;;44.30;;
5465;SDS011;2755;50.728;7.108;2023-12-14T11:08:16;128.07;;;48.17;;
5465;SDS011;2755;50.728;7.108;2023-12-14T11:10:43;125.60;;;44.80;;
5465;SDS011;2755;50.728;7.108;2023-12-14T11:13:20;124.47;;;46.30;;
5465;SDS011;2755;50.728;7.108;2023-12-14T11:15:50;128.27;;;47.37;;
5465;SDS011;2755;50.728;7.108;2023-12-14T11:18:20;127.27;;;46.33;;
5465;SDS011;2755;50.728;7.108;2023-12-14T11:20:57;127.03;;;46.37;;
5465;SDS011;2755;50.728;7.108;2023-12-14T11:25:51;126.17;;;46.20;;
5465;SDS011;2755;50.728;7.108;2023-12-14T11:28:18;126.27;;;47.10;;
5465;SDS011;2755;50.728;7.108;2023-12-14T11:30:45;125.47;;;44.20;;
5465;SDS011;2755;50.728;7.108;2023-12-14T11:33:11;127.77;;;47.17;;
5465;SDS011;2755;50.728;7.108;2023-12-14T11:35:38;124.57;;;44.50;;
5465;SDS011;2755;50.728;7.108;2023-12-14T11:38:04;125.97;;;45.73;;
5465;SDS011;2755;50.728;7.108;2023-12-14T11:40:35;125.50;;;44.40;;
5465;SDS011;2755;50.728;7.108;2023-12-14T11:43:02;127.97;;;49.17;;
5465;SDS011;2755;50.728;7.108;2023-12-14T11:45:33;126.27;;;45.33;;
5465;SDS011;2755;50.728;7.108;2023-12-14T11:48:09;127.57;;;47.07;;
5465;SDS011;2755;50.728;7.108;2023-12-14T11:50:37;127.47;;;48.47;;
5465;SDS011;2755;50.728;7.108;2023-12-14T11:53:04;125.50;;;45.70;;
5465;SDS011;2755;50.728;7.108;2023-12-14T11:55:30;129.43;;;50.43;;
5465;SDS011;2755;50.728;7.108;2023-12-14T11:57:59;128.37;;;48.83;;
5465;SDS011;2755;50.728;7.108;2023-12-14T12:00:26;129.37;;;51.87;;
5465;SDS011;2755;50.728;7.108;2023-12-14T12:05:48;132.47;;;53.60;;
5465;SDS011;2755;50.728;7.108;2023-12-14T12:08:15;135.63;;;56.97;;
5465;SDS011;2755;50.728;7.108;2023-12-14T12:10:43;130.47;;;54.27;;
5465;SDS011;2755;50.728;7.108;2023-12-14T12:13:13;134.03;;;58.13;;
5465;SDS011;2755;50.728;7.108;2023-12-14T12:15:40;134.10;;;57.60;;
5465;SDS011;2755;50.728;7.108;2023-12-14T12:18:07;131.83;;;53.93;;
5465;SDS011;2755;50.728;7.108;2023-12-14T12:20:33;133.30;;;56.60;;
5465;SDS011;2755;50.728;7.108;2023-12-14T12:22:59;130.87;;;53.77;;
5465;SDS011;2755;50.728;7.108;2023-12-14T12:25:26;132.07;;;55.40;;
5465;SDS011;2755;50.728;7.108;2023-12-14T12:27:53;130.53;;;52.87;;
5465;SDS011;2755;50.728;7.108;2023-12-14T12:30:20;131.60;;;55.10;;
5465;SDS011;2755;50.728;7.108;2023-12-14T12:32:46;130.67;;;53.23;;
5465;SDS011;2755;50.728;7.108;2023-12-14T12:35:12;131.47;;;53.47;;
5465;SDS011;2755;50.728;7.108;2023-12-14T12:37:38;128.57;;;49.70;;
5465;SDS011;2755;50.728;7.108;2023-12-14T12:40:05;129.17;;;50.73;;
5465;SDS011;2755;50.728;7.108;2023-12-14T12:42:32;131.27;;;52.97;;
5465;SDS011;2755;50.728;7.108;2023-12-14T12:44:58;128.90;;;51.27;;
5465;SDS011;2755;50.728;7.108;2023-12-14T12:47:23;131.07;;;52.60;;
5465;SDS011;2755;50.728;7.108;2023-12-14T12:49:49;128.83;;;49.43;;
5465;SDS011;2755;50.728;7.108;2023-12-14T12:52:15;136.87;;;52.23;;
5465;SDS011;2755;50.728;7.108;2023-12-14T12:54:41;127.87;;;47.30;;
5465;SDS011;2755;50.728;7.108;2023-12-14T12:57:07;127.47;;;49.63;;
5465;SDS011;2755;50.728;7.108;2023-12-14T12:59:32;129.40;;;50.60;;
5465;SDS011;2755;50.728;7.108;2023-12-14T13:01:58;128.87;;;51.20;;
5465;SDS011;2755;50.728;7.108;2023-12-14T13:04:24;128.77;;;51.87;;
5465;SDS011;2755;50.728;7.108;2023-12-14T13:06:51;131.40;;;54.77;;
5465;SDS011;2755;50.728;7.108;2023-12-14T13:09:17;131.37;;;54.73;;
5465;SDS011;2755;50.728;7.108;2023-12-14T13:11:45;131.70;;;53.97;;
5465;SDS011;2755;50.728;7.108;2023-12-14T13:14:14;131.40;;;53.93;;
5465;SDS011;2755;50.728;7.108;2023-12-14T13:16:40;131.17;;;54.87;;
5465;SDS011;2755;50.728;7.108;2023-12-14T13:19:06;129.27;;;50.93;;
5465;SDS011;2755;50.728;7.108;2023-12-14T13:21:35;129.77;;;51.90;;
5465;SDS011;2755;50.728;7.108;2023-12-14T13:24:01;127.67;;;49.33;;
5465;SDS011;2755;50.728;7.108;2023-12-14T13:26:27;127.40;;;49.30;;
5465;SDS011;2755;50.728;7.108;2023-12-14T13:28:54;125.40;;;44.77;;
5465;SDS011;2755;50.728;7.108;2023-12-14T13:31:20;128.67;;;52.00;;
5465;SDS011;2755;50.728;7.108;2023-12-14T13:33:46;127.70;;;50.40;;
5465;SDS011;2755;50.728;7.108;2023-12-14T13:36:13;128.53;;;49.27;;
5465;SDS011;2755;50.728;7.108;2023-12-14T13:38:40;127.97;;;50.03;;
5465;SDS011;2755;50.728;7.108;2023-12-14T13:41:06;126.93;;;48.80;;
5465;SDS011;2755;50.728;7.108;2023-12-14T13:43:35;127.67;;;49.03;;
5465;SDS011;2755;50.728;7.108;2023-12-14T13:46:01;127.27;;;48.10;;
5465;SDS011;2755;50.728;7.108;2023-12-14T13:48:27;127.73;;;47.23;;
5465;SDS011;2755;50.728;7.108;2023-12-14T13:50:54;129.30;;;50.50;;
5465;SDS011;2755;50.728;7.108;2023-12-14T13:53:20;126.07;;;47.80;;
5465;SDS011;2755;50.728;7.108;2023-12-14T13:55:46;128.17;;;50.67;;
5465;SDS011;2755;50.728;7.108;2023-12-14T13:58:13;128.07;;;49.33;;
5465;SDS011;2755;50.728;7.108;2023-12-14T14:00:39;127.87;;;48.73;;
5465;SDS011;2755;50.728;7.108;2023-12-14T14:03:06;128.67;;;50.87;;
5465;SDS011;2755;50.728;7.108;2023-12-14T14:08:09;127.57;;;49.27;;
5465;SDS011;2755;50.728;7.108;2023-12-14T14:10:34;128.17;;;48.60;;
5465;SDS011;2755;50.728;7.108;2023-12-14T14:13:00;128.60;;;50.50;;
5465;SDS011;2755;50.728;7.108;2023-12-14T14:15:26;125.20;;;45.30;;
5465;SDS011;2755;50.728;7.108;2023-12-14T14:17:52;126.87;;;49.37;;
5465;SDS011;2755;50.728;7.108;2023-12-14T14:20:19;128.07;;;49.67;;
5465;SDS011;2755;50.728;7.108;2023-12-14T14:22:45;125.63;;;46.90;;
5465;SDS011;2755;50.728;7.108;2023-12-14T14:25:10;127.27;;;48.30;;
5465;SDS011;2755;50.728;7.108;2023-12-14T14:27:36;126.37;;;47.97;;
5465;SDS011;2755;50.728;7.108;2023-12-14T14:30:03;127.50;;;48.53;;
5465;SDS011;2755;50.728;7.108;2023-12-14T14:32:29;126.53;;;48.43;;
5465;SDS011;2755;50.728;7.108;2023-12-14T14:34:56;126.63;;;47.50;;
5465;SDS011;2755;50.728;7.108;2023-12-14T14:37:23;128.33;;;49.37;;
5465;SDS011;2755;50.728;7.108;2023-12-14T14:39:49;128.07;;;49.67;;